Blaine, WA

6:41 PM PST on November 28, 2014 (GMT -0800)
Friday Harbor | Change Station
CLOSE
Current Station
Airport
Location: Friday Harbor,
Elevation: 108 ft
Nearby Weather Stations
Active Advisory: Flood Warning, Wind Advisory

Elev 108 ft 48.52 °N, 123.02 °W | Updated 48 minutes ago

Overcast
Overcast
40 °F
Feels Like 37 °F
N
5
Wind Variable Wind from West

Today
High -- | Low -- °F
--% Chance of Precip.
Yesterday
High -- | Low -- °F
Precip. -- in
7:39 AM 4:17 PM
Waxing Crescent, 46% visible
Pressure 29.48 in
Visibility 10.0 miles
Clouds Few 3800 ft
Scattered Clouds 5500 ft
Windchill 37 °F
Dew Point 34 °F
Humidity 79%
Rainfall 0.41 in
Snow Depth Not available.
UV 0 out of 12
Pollen .10 out of 12
Air Quality Not available.
Flu Activity Not available.
METAR KFHR 290153Z AUTO 26004KT 10SM FEW038 SCT055 04/01 A2948 RMK AO2 SLP981 T00440011

More Conditions Fewer Conditions

Pressure 29.48 in
Visibility 10.0 miles
Clouds Few 3800 ft
Scattered Clouds 5500 ft
Windchill 37 °F
Dew Point 34 °F
Humidity 79%
Rainfall 0.41 in
Snow Depth Not available.
UV 0 out of 12
Pollen .10 out of 12
Air Quality Not available.
Flu Activity Not available.
METAR KFHR 290153Z AUTO 26004KT 10SM FEW038 SCT055 04/01 A2948 RMK AO2 SLP981 T00440011

More Conditions Fewer Conditions

10-Day Weather Forecast

Almanac

Astronomy

Nov. 28, 2014 Rise Set
Actual Time
Civil Twilight
Nautical Twilight
Astronomical Twilight
Moon
Length of Visible Light
Length of Day
Tomorrow will be .
, % of the Moon is Illuminated

Today's Extremes

State Highs State Lows

Community

WunderPhotos

Upload Photos

1,774,377 photos uploaded!

WunderBlogs® & News

Nearby

Air Quality

  Air Quality AQ Index Pollutant
Not available.

Snow Depth

Station Depth Elevation

Earthquake Activity

City Distance Mag. Time & Date
Minimum magnitude displayed is 2.5.

Coastal Water Temperatures

Place Temperature

Nearby Weather Stations